Time;durP1;ratioP1;P1;durP2;ratioP2;P2;SDS_P1;SDS_P2;PMS_P1;PMS_P2;Temp;Humidity;BMP_temperature;BMP_pressure;BME280_temperature;BME280_humidity;BME280_pressure;Samples;Min_cycle;Max_cycle;Signal;HPM_P1;HPM_P2
2022/03/13 00:02:26;;;;;;;1.25;0.63;;;8.80;58.30;;;;;;20903793;28;20095;-78
2022/03/13 00:12:29;;;;;;;2.25;1.20;;;8.80;58.40;;;;;;20870912;28;20163;-78
2022/03/13 00:22:30;;;;;;;1.17;0.60;;;8.80;58.40;;;;;;20886701;28;20028;-78
2022/03/13 00:32:31;;;;;;;4.53;1.08;;;8.80;58.30;;;;;;20870608;28;20396;-78
2022/03/13 00:42:32;;;;;;;2.03;1.05;;;8.80;58.10;;;;;;20901500;28;20037;-79
2022/03/13 00:52:32;;;;;;;2.70;1.40;;;8.70;58.00;;;;;;20868162;28;20139;-79
2022/03/13 01:02:34;;;;;;;2.38;1.27;;;8.80;57.90;;;;;;20867996;28;20040;-79
2022/03/13 01:12:35;;;;;;;2.58;1.20;;;8.70;57.80;;;;;;20865964;28;20045;-78
2022/03/13 01:22:35;;;;;;;3.23;1.77;;;8.70;57.70;;;;;;20861378;28;20048;-78
2022/03/13 01:32:36;;;;;;;3.08;1.30;;;8.70;57.60;;;;;;20865277;28;20767;-79
2022/03/13 01:42:40;;;;;;;2.33;1.10;;;8.70;57.50;;;;;;20879574;28;20140;-79
2022/03/13 01:52:42;;;;;;;2.55;1.38;;;8.70;57.40;;;;;;20863771;28;20775;-78
2022/03/13 02:12:55;;;;;;;3.00;1.52;;;8.70;57.30;;;;;;20820873;28;19920;-78
2022/03/13 02:22:59;;;;;;;3.70;1.85;;;8.60;57.30;;;;;;20813935;28;20029;-78
2022/03/13 02:33:00;;;;;;;3.03;1.88;;;8.70;57.30;;;;;;20812349;28;20124;-78
2022/03/13 02:43:01;;;;;;;4.75;2.25;;;8.60;57.20;;;;;;20795448;28;20120;-79
2022/03/13 02:53:01;;;;;;;3.58;1.45;;;8.60;57.10;;;;;;20812038;28;20048;-78
2022/03/13 03:03:02;;;;;;;2.88;1.52;;;8.60;57.10;;;;;;20810667;28;20444;-78
2022/03/13 03:13:07;;;;;;;3.28;1.52;;;8.60;57.10;;;;;;20794550;28;20040;-78
2022/03/13 03:23:08;;;;;;;3.30;1.83;;;8.60;57.20;;;;;;20809425;28;20029;-79
2022/03/13 03:33:08;;;;;;;3.78;1.90;;;8.60;57.30;;;;;;20817952;28;20109;-78
2022/03/13 03:43:10;;;;;;;4.25;2.08;;;8.50;57.20;;;;;;20824581;28;20112;-78
2022/03/13 03:53:10;;;;;;;6.85;2.00;;;8.60;57.10;;;;;;20809256;28;20139;-78
2022/03/13 04:03:11;;;;;;;5.22;1.83;;;8.60;57.00;;;;;;20824153;28;20120;-78
2022/03/13 04:13:12;;;;;;;4.68;2.30;;;8.60;56.90;;;;;;20807669;28;20111;-78
2022/03/13 04:23:12;;;;;;;3.03;1.65;;;8.60;56.90;;;;;;20824723;28;20544;-78
2022/03/13 04:33:16;;;;;;;3.60;2.17;;;8.50;56.80;;;;;;20822679;28;20389;-78
2022/03/13 04:43:16;;;;;;;3.50;2.22;;;8.50;56.80;;;;;;20822030;28;20104;-78
2022/03/13 04:53:17;;;;;;;5.03;2.63;;;8.50;56.80;;;;;;20820429;28;20088;-77
2022/03/13 05:03:17;;;;;;;2.75;1.85;;;8.50;56.80;;;;;;20820562;28;20033;-77
2022/03/13 05:13:18;;;;;;;4.13;2.15;;;8.50;56.80;;;;;;20819438;28;20470;-78
2022/03/13 05:23:19;;;;;;;3.78;1.98;;;8.50;56.90;;;;;;20802003;28;20116;-79
2022/03/13 05:33:19;;;;;;;2.78;1.50;;;8.50;57.00;;;;;;20817975;28;20041;-78
2022/03/13 05:43:22;;;;;;;4.22;2.00;;;8.50;57.10;;;;;;20811613;28;20030;-77
2022/03/13 05:53:27;;;;;;;2.87;1.73;;;8.50;57.20;;;;;;20782632;28;20048;-78
2022/03/13 06:03:27;;;;;;;3.10;1.77;;;8.50;57.30;;;;;;20799060;28;20033;-77
2022/03/13 06:13:28;;;;;;;2.73;1.53;;;8.50;57.40;;;;;;20813402;28;20085;-77
2022/03/13 06:23:29;;;;;;;3.58;1.88;;;8.40;57.40;;;;;;20810020;28;20621;-78
2022/03/13 06:33:30;;;;;;;3.17;1.60;;;8.40;57.50;;;;;;20797353;28;20470;-77
2022/03/13 06:43:34;;;;;;;3.22;1.77;;;8.40;57.60;;;;;;20797440;28;20450;-78
2022/03/13 06:53:35;;;;;;;2.97;1.52;;;8.40;57.70;;;;;;20812899;28;20037;-78
2022/03/13 07:03:35;;;;;;;4.10;1.45;;;8.40;57.80;;;;;;20779245;28;20076;-80
2022/03/13 07:13:36;;;;;;;3.30;1.57;;;8.40;57.80;;;;;;20793660;28;20040;-76
2022/03/13 07:23:37;;;;;;;3.65;1.52;;;8.40;57.80;;;;;;20745049;28;20850;-76
2022/03/13 07:33:38;;;;;;;4.45;1.58;;;8.40;57.90;;;;;;20715903;28;20096;-75
2022/03/13 07:43:38;;;;;;;3.15;1.52;;;8.40;58.00;;;;;;20754395;28;20038;-74
2022/03/13 07:53:41;;;;;;;4.30;1.80;;;8.40;58.00;;;;;;20712017;28;20038;-82
2022/03/13 08:03:44;;;;;;;3.33;1.55;;;8.50;58.10;;;;;;20755273;28;20025;-77
2022/03/13 08:13:45;;;;;;;6.07;1.52;;;8.50;58.00;;;;;;20811011;28;20034;-78
2022/03/13 08:23:45;;;;;;;3.67;1.80;;;8.50;58.00;;;;;;20821133;28;20029;-76
2022/03/13 08:33:46;;;;;;;3.00;1.60;;;8.50;57.90;;;;;;20821869;28;20115;-82
2022/03/13 08:43:48;;;;;;;3.67;1.40;;;8.50;57.90;;;;;;20819278;28;20030;-76
2022/03/13 08:53:50;;;;;;;4.82;1.42;;;8.50;57.80;;;;;;20803479;28;20040;-80
2022/03/13 09:03:51;;;;;;;7.32;1.25;;;8.60;57.70;;;;;;20817451;28;20045;-78
2022/03/13 09:13:53;;;;;;;5.03;2.15;;;8.60;57.80;;;;;;20818491;28;20528;-78
2022/03/13 09:23:53;;;;;;;6.35;2.13;;;8.60;57.30;;;;;;20800178;28;20029;-81
2022/03/13 09:33:54;;;;;;;7.88;2.83;;;8.60;56.70;;;;;;20815015;28;20037;-81
2022/03/13 09:43:54;;;;;;;4.32;2.38;;;8.60;55.30;;;;;;20798779;28;20048;-80
2022/03/13 09:53:55;;;;;;;9.35;3.08;;;8.60;54.90;;;;;;20781708;28;20127;-80
2022/03/13 10:03:56;;;;;;;5.47;2.75;;;8.60;55.00;;;;;;20795370;28;20076;-76
2022/03/13 10:14:07;;;;;;;8.18;2.40;;;8.70;55.20;;;;;;20780619;28;20302;-78
2022/03/13 10:24:11;;;;;;;3.70;2.05;;;8.70;55.40;;;;;;20797805;28;20029;-78
2022/03/13 10:34:11;;;;;;;4.47;1.90;;;8.60;55.60;;;;;;20790975;28;20488;-73
2022/03/13 10:44:16;;;;;;;8.00;2.30;;;8.70;55.70;;;;;;20791444;28;20065;-74
2022/03/13 10:54:28;;;;;;;8.23;1.98;;;8.70;55.80;;;;;;20730559;28;20050;-72
2022/03/13 11:04:28;;;;;;;6.22;2.22;;;8.70;55.80;;;;;;20744437;28;20041;-73
2022/03/13 11:14:30;;;;;;;5.15;1.75;;;8.70;55.90;;;;;;20796094;28;20473;-74
2022/03/13 11:24:36;;;;;;;3.78;1.85;;;8.70;56.10;;;;;;20808416;28;20515;-79
2022/03/13 11:34:36;;;;;;;6.60;1.80;;;8.80;56.10;;;;;;20795205;28;20034;-75
2022/03/13 11:44:37;;;;;;;3.05;1.52;;;8.80;56.20;;;;;;20775748;28;20030;-78
2022/03/13 11:54:53;;;;;;;5.35;1.50;;;8.80;56.20;;;;;;20777218;28;20046;-74
2022/03/13 12:05:22;;;;;;;5.88;1.77;;;8.90;56.30;;;;;;20753523;28;20042;-74
2022/03/13 12:15:23;;;;;;;3.45;1.58;;;8.90;56.10;;;;;;20721625;28;20476;-73
2022/03/13 12:25:24;;;;;;;3.72;1.15;;;8.90;56.00;;;;;;20815908;28;20030;-74
2022/03/13 12:35:25;;;;;;;4.60;1.52;;;8.90;55.90;;;;;;20816648;28;20164;-75
2022/03/13 12:45:26;;;;;;;2.70;1.60;;;9.00;55.90;;;;;;20815994;28;20439;-74
2022/03/13 12:55:27;;;;;;;8.75;2.85;;;9.00;55.80;;;;;;20799774;28;20059;-74
2022/03/13 13:05:28;;;;;;;7.07;1.38;;;9.00;55.80;;;;;;20798030;28;20529;-75
2022/03/13 13:15:29;;;;;;;3.58;1.40;;;9.00;55.80;;;;;;20763365;28;20124;-74
2022/03/13 13:25:29;;;;;;;3.22;1.77;;;9.10;55.80;;;;;;20813081;28;20555;-74
2022/03/13 13:35:41;;;;;;;3.90;1.67;;;9.10;56.50;;;;;;20809829;28;20033;-74
2022/03/13 13:45:43;;;;;;;6.93;1.27;;;9.10;56.40;;;;;;20811139;28;20041;-74
2022/03/13 13:55:44;;;;;;;2.42;1.55;;;9.10;55.70;;;;;;20810860;28;20113;-74
2022/03/13 14:05:45;;;;;;;2.53;1.30;;;9.10;55.80;;;;;;20793062;28;20060;-74
2022/03/13 14:15:45;;;;;;;2.80;1.63;;;9.20;55.70;;;;;;20767250;28;20044;-74
2022/03/13 14:25:46;;;;;;;4.35;1.13;;;9.20;55.70;;;;;;20791757;28;20632;-71
2022/03/13 14:35:47;;;;;;;5.95;2.15;;;9.20;55.70;;;;;;20791109;28;20072;-75
2022/03/13 14:45:48;;;;;;;7.22;1.95;;;9.10;55.70;;;;;;20749477;28;20486;-73
2022/03/13 14:55:48;;;;;;;2.83;1.20;;;9.10;55.70;;;;;;20715292;28;20088;-71
2022/03/13 15:05:51;;;;;;;1.83;1.08;;;9.20;55.80;;;;;;20801672;28;20119;-71
2022/03/13 15:15:52;;;;;;;6.15;2.15;;;9.30;55.90;;;;;;20782727;28;20033;-69
2022/03/13 15:25:54;;;;;;;4.93;1.15;;;9.30;55.90;;;;;;20807174;28;20033;-70
2022/03/13 15:35:56;;;;;;;2.30;1.27;;;9.30;56.60;;;;;;20767610;28;20156;-71
2022/03/13 15:45:57;;;;;;;3.33;1.13;;;9.40;55.90;;;;;;20796670;28;20039;-72
2022/03/13 15:55:57;;;;;;;2.97;1.27;;;9.50;55.90;;;;;;20796391;28;20041;-71
2022/03/13 16:05:58;;;;;;;4.20;1.15;;;9.60;55.80;;;;;;20774708;28;20331;-74
2022/03/13 16:16:02;;;;;;;2.55;1.38;;;9.60;55.70;;;;;;20793380;28;20056;-72
2022/03/13 16:26:05;;;;;;;2.70;1.15;;;9.70;55.70;;;;;;20784604;28;20039;-74
2022/03/13 16:36:05;;;;;;;2.35;1.30;;;9.60;55.70;;;;;;20783625;28;20128;-74
2022/03/13 16:46:06;;;;;;;1.10;0.77;;;9.60;55.70;;;;;;20760715;28;20034;-72
2022/03/13 16:56:06;;;;;;;2.22;1.23;;;9.60;55.80;;;;;;20824310;28;20125;-80
2022/03/13 17:06:09;;;;;;;2.33;1.23;;;9.60;55.90;;;;;;20787396;28;20080;-80
2022/03/13 17:16:11;;;;;;;1.88;1.00;;;9.60;56.00;;;;;;20806052;28;20284;-74
2022/03/13 17:26:11;;;;;;;2.97;1.73;;;9.50;56.10;;;;;;20798850;28;20489;-76
2022/03/13 17:36:12;;;;;;;4.70;1.00;;;9.40;56.30;;;;;;20743072;28;20034;-76
2022/03/13 17:46:12;;;;;;;2.35;1.00;;;9.40;56.40;;;;;;20748296;28;20049;-77
2022/03/13 17:56:13;;;;;;;2.45;1.13;;;9.30;56.60;;;;;;20729240;28;20120;-76
2022/03/13 18:06:14;;;;;;;2.57;1.17;;;9.30;56.70;;;;;;20762316;28;20045;-76
2022/03/13 18:16:14;;;;;;;1.80;1.23;;;9.30;56.90;;;;;;20807265;28;20357;-76
2022/03/13 18:26:16;;;;;;;1.40;0.85;;;9.20;56.90;;;;;;20791062;28;20280;-75
2022/03/13 18:36:17;;;;;;;1.80;1.08;;;9.20;57.10;;;;;;20781425;28;20056;-75
2022/03/13 18:46:18;;;;;;;2.42;1.63;;;9.30;57.20;;;;;;20805774;28;20038;-76
2022/03/13 18:56:18;;;;;;;1.75;0.93;;;9.20;57.30;;;;;;20801845;28;20033;-75
2022/03/13 19:06:21;;;;;;;1.85;0.95;;;9.20;57.40;;;;;;20765494;28;20512;-75
2022/03/13 19:16:23;;;;;;;1.35;0.80;;;9.20;57.40;;;;;;20751608;28;20456;-76
2022/03/13 19:26:23;;;;;;;1.67;0.60;;;9.20;57.50;;;;;;20786594;28;20045;-76
2022/03/13 19:36:24;;;;;;;2.38;1.10;;;9.20;57.60;;;;;;20773529;28;20120;-76
2022/03/13 19:46:24;;;;;;;1.67;0.90;;;9.10;57.60;;;;;;20799503;28;20038;-73
2022/03/13 19:56:25;;;;;;;1.50;1.05;;;9.10;57.70;;;;;;20803532;28;20057;-73
2022/03/13 20:06:27;;;;;;;2.67;0.90;;;9.10;57.70;;;;;;20803236;28;20036;-73
2022/03/13 20:16:27;;;;;;;1.52;0.50;;;9.10;57.80;;;;;;20798592;28;20453;-74
2022/03/13 20:26:28;;;;;;;0.83;0.60;;;9.10;58.10;;;;;;20799129;28;20061;-73
2022/03/13 20:36:29;;;;;;;2.27;1.00;;;9.10;57.90;;;;;;20798472;28;20300;-72
2022/03/13 20:46:29;;;;;;;1.52;0.70;;;9.10;57.90;;;;;;20797571;28;20307;-73
2022/03/13 20:56:30;;;;;;;2.40;0.85;;;9.10;57.90;;;;;;20776067;28;20042;-73
2022/03/13 21:06:30;;;;;;;2.05;0.90;;;9.10;58.00;;;;;;20771845;28;20047;-72
2022/03/13 21:16:31;;;;;;;1.83;0.85;;;9.10;58.00;;;;;;20733355;28;20042;-73
2022/03/13 21:26:32;;;;;;;1.27;0.60;;;9.10;58.00;;;;;;20714198;28;20037;-72
2022/03/13 21:36:32;;;;;;;2.90;1.10;;;9.10;58.00;;;;;;20714168;28;20087;-73
2022/03/13 21:46:33;;;;;;;1.10;0.60;;;9.10;58.10;;;;;;20729852;28;20053;-73
2022/03/13 21:56:35;;;;;;;1.77;1.08;;;9.10;58.00;;;;;;20728696;28;20037;-73
2022/03/13 22:06:38;;;;;;;2.85;1.00;;;9.00;57.80;;;;;;20712720;28;20492;-73
2022/03/13 22:16:38;;;;;;;2.00;1.00;;;9.10;57.90;;;;;;20712052;28;20045;-73
2022/03/13 22:26:40;;;;;;;1.47;1.00;;;9.10;58.00;;;;;;20726877;28;20025;-74
2022/03/13 22:36:40;;;;;;;2.63;1.05;;;9.00;58.00;;;;;;20725414;28;20863;-73
2022/03/13 22:46:41;;;;;;;1.13;0.70;;;9.10;58.10;;;;;;20725636;28;20057;-73
2022/03/13 22:56:48;;;;;;;1.40;0.80;;;9.10;58.10;;;;;;20725165;28;20095;-72
2022/03/13 23:06:48;;;;;;;2.97;0.90;;;9.10;58.20;;;;;;20724750;28;20066;-72
2022/03/13 23:16:50;;;;;;;2.22;1.10;;;9.10;58.20;;;;;;20724408;28;20034;-73
2022/03/13 23:26:53;;;;;;;1.08;0.73;;;9.00;58.20;;;;;;20723409;28;20025;-73
2022/03/13 23:36:57;;;;;;;2.45;1.25;;;9.10;58.30;;;;;;20739334;28;20042;-72
2022/03/13 23:46:57;;;;;;;3.00;0.98;;;9.00;58.20;;;;;;20710353;28;20044;-73
2022/03/13 23:56:58;;;;;;;3.00;1.00;;;9.00;58.20;;;;;;20722804;28;20546;-72
